createdAt,value
2019-02-16T00:00:25.362Z,1.80
2019-02-16T00:02:53.779Z,1.80
2019-02-16T00:05:22.181Z,1.80
2019-02-16T00:07:50.509Z,1.90
2019-02-16T00:10:19.162Z,1.80
2019-02-16T00:12:47.530Z,1.80
2019-02-16T00:15:17.033Z,1.80
2019-02-16T00:17:45.524Z,1.70
2019-02-16T00:20:14.069Z,1.70
2019-02-16T00:22:42.560Z,1.70
2019-02-16T00:25:10.967Z,1.70
2019-02-16T00:27:39.404Z,1.70
2019-02-16T00:30:08.241Z,1.70
2019-02-16T00:32:36.720Z,1.70
2019-02-16T00:35:05.808Z,1.60
2019-02-16T00:37:34.457Z,1.60
2019-02-16T00:40:04.622Z,1.60
2019-02-16T00:42:33.233Z,1.60
2019-02-16T00:45:01.722Z,1.60
2019-02-16T00:47:30.126Z,1.60
2019-02-16T00:49:58.564Z,1.60
2019-02-16T00:52:27.315Z,1.50
2019-02-16T00:54:55.720Z,1.50
2019-02-16T00:57:24.114Z,1.50
2019-02-16T00:59:52.443Z,1.50
2019-02-16T01:02:21.128Z,1.50
2019-02-16T01:04:49.508Z,1.50
2019-02-16T01:07:18.105Z,1.40
2019-02-16T01:09:46.820Z,1.40
2019-02-16T01:12:15.262Z,1.40
2019-02-16T01:14:43.738Z,1.40
2019-02-16T01:17:31.510Z,1.40
2019-02-16T01:19:59.924Z,1.40
2019-02-16T01:22:28.523Z,1.40
2019-02-16T01:24:56.873Z,1.40
2019-02-16T01:27:25.234Z,1.40
2019-02-16T01:29:53.796Z,1.40
2019-02-16T01:32:22.114Z,1.40
2019-02-16T01:34:50.870Z,1.40
2019-02-16T01:37:19.493Z,1.40
2019-02-16T01:39:48.075Z,1.40
2019-02-16T01:42:16.523Z,1.30
2019-02-16T01:44:45.229Z,1.30
2019-02-16T01:47:13.539Z,1.30
2019-02-16T01:49:41.964Z,1.30
2019-02-16T01:52:10.636Z,1.20
2019-02-16T01:54:39.061Z,1.20
2019-02-16T01:57:07.415Z,1.20
2019-02-16T01:59:35.756Z,1.20
2019-02-16T02:02:04.235Z,1.20
2019-02-16T02:04:32.748Z,1.20
2019-02-16T02:07:01.137Z,1.20
2019-02-16T02:09:29.682Z,1.20
2019-02-16T02:11:58.011Z,1.10
2019-02-16T02:14:26.820Z,1.10
2019-02-16T02:16:55.374Z,1.10
2019-02-16T02:19:23.955Z,1.10
2019-02-16T02:21:52.590Z,1.00
2019-02-16T02:24:21.048Z,1.00
2019-02-16T02:26:49.395Z,1.10
2019-02-16T02:29:17.815Z,1.00
2019-02-16T02:31:47.771Z,1.00
2019-02-16T02:34:16.085Z,1.00
2019-02-16T02:36:44.770Z,1.00
2019-02-16T02:39:13.247Z,0.90
2019-02-16T02:41:41.627Z,0.90
2019-02-16T02:44:09.994Z,0.90
2019-02-16T02:46:38.318Z,0.90
2019-02-16T02:49:06.602Z,0.90
2019-02-16T02:51:35.161Z,0.90
2019-02-16T02:54:03.683Z,0.90
2019-02-16T02:56:33.743Z,0.90
2019-02-16T02:59:02.112Z,0.80
2019-02-16T03:01:30.522Z,0.90
2019-02-16T03:03:58.825Z,0.80
2019-02-16T03:06:33.448Z,0.90
2019-02-16T03:09:01.900Z,0.90
2019-02-16T03:11:30.390Z,0.80
2019-02-16T03:13:58.767Z,0.80
2019-02-16T03:16:27.153Z,0.80
2019-02-16T03:18:55.564Z,0.80
2019-02-16T03:21:23.993Z,0.80
2019-02-16T03:23:52.459Z,0.80
2019-02-16T03:26:26.790Z,0.80
2019-02-16T03:29:04.130Z,0.80
2019-02-16T03:32:03.190Z,0.80
2019-02-16T03:34:40.334Z,0.80
2019-02-16T03:37:45.450Z,0.80
2019-02-16T03:40:13.859Z,0.80
2019-02-16T03:42:42.561Z,0.70
2019-02-16T03:45:19.923Z,0.70
2019-02-16T03:47:48.263Z,0.60
2019-02-16T03:50:16.583Z,0.60
2019-02-16T03:52:45.252Z,0.60
2019-02-16T03:55:13.643Z,0.60
2019-02-16T03:57:42.868Z,0.60
2019-02-16T04:00:11.375Z,0.60
2019-02-16T04:02:39.749Z,0.60
2019-02-16T04:05:09.869Z,0.60
2019-02-16T04:07:38.198Z,0.60
2019-02-16T04:10:06.942Z,0.60
2019-02-16T04:12:35.383Z,0.60
2019-02-16T04:15:04.430Z,0.60
2019-02-16T04:17:32.960Z,0.60
2019-02-16T04:20:01.432Z,0.60
2019-02-16T04:22:29.845Z,0.60
2019-02-16T04:24:58.303Z,0.60
2019-02-16T04:27:26.670Z,0.60
2019-02-16T04:29:55.102Z,0.50
2019-02-16T04:32:23.459Z,0.60
2019-02-16T04:34:51.829Z,0.60
2019-02-16T04:37:39.673Z,0.50
2019-02-16T04:40:10.080Z,0.50
2019-02-16T04:42:38.435Z,0.50
2019-02-16T04:45:07.645Z,0.50
2019-02-16T04:47:36.129Z,0.50
2019-02-16T04:50:05.325Z,0.50
2019-02-16T04:52:35.156Z,0.50
2019-02-16T04:55:06.117Z,0.40
2019-02-16T04:57:34.822Z,0.40
2019-02-16T05:00:03.417Z,0.40
2019-02-16T05:02:31.691Z,0.40
2019-02-16T05:05:00.111Z,0.40
2019-02-16T05:07:28.695Z,0.50
2019-02-16T05:09:57.018Z,0.50
2019-02-16T05:12:25.360Z,0.50
2019-02-16T05:14:53.750Z,0.50
2019-02-16T05:17:22.178Z,0.50
2019-02-16T05:19:50.558Z,0.40
2019-02-16T05:22:19.204Z,0.40
2019-02-16T05:24:47.577Z,0.40
2019-02-16T05:27:16.991Z,0.40
2019-02-16T05:29:45.311Z,0.40
2019-02-16T05:32:13.713Z,0.50
2019-02-16T05:34:42.012Z,0.40
2019-02-16T05:37:10.674Z,0.40
2019-02-16T05:39:39.036Z,0.40
2019-02-16T05:42:08.428Z,0.40
2019-02-16T05:44:36.734Z,0.40
2019-02-16T05:47:05.062Z,0.40
2019-02-16T05:49:33.410Z,0.40
2019-02-16T05:52:01.882Z,0.40
2019-02-16T05:54:30.190Z,0.40
2019-02-16T05:56:58.563Z,0.40
2019-02-16T05:59:26.862Z,0.40
2019-02-16T06:01:55.174Z,0.40
2019-02-16T06:04:23.646Z,0.40
2019-02-16T06:06:51.986Z,0.40
2019-02-16T06:09:20.281Z,0.40
2019-02-16T06:11:48.755Z,0.40
2019-02-16T06:14:17.290Z,0.40
2019-02-16T06:16:45.656Z,0.40
2019-02-16T06:19:14.139Z,0.40
2019-02-16T06:21:42.450Z,0.40
2019-02-16T06:24:10.879Z,0.40
2019-02-16T06:26:39.697Z,0.40
2019-02-16T06:29:08.087Z,0.40
2019-02-16T06:31:36.376Z,0.50
2019-02-16T06:34:04.787Z,0.50
2019-02-16T06:36:35.008Z,0.50
2019-02-16T06:39:05.055Z,0.50
2019-02-16T06:41:33.707Z,0.60
2019-02-16T06:44:02.028Z,0.60
2019-02-16T06:46:32.031Z,0.60
2019-02-16T06:49:00.472Z,0.70
2019-02-16T06:51:28.790Z,0.70
2019-02-16T06:53:57.291Z,0.70
2019-02-16T06:56:27.226Z,0.70
2019-02-16T06:58:55.559Z,0.70
2019-02-16T07:01:24.131Z,0.80
2019-02-16T07:03:52.544Z,0.80
2019-02-16T07:06:21.256Z,0.80
2019-02-16T07:08:49.779Z,0.80
2019-02-16T07:11:18.147Z,0.80
2019-02-16T07:13:46.492Z,0.90
2019-02-16T07:16:31.801Z,0.90
2019-02-16T07:19:01.781Z,0.90
2019-02-16T07:21:30.077Z,0.90
2019-02-16T07:23:58.397Z,1.10
2019-02-16T07:26:26.709Z,1.10
2019-02-16T07:28:55.042Z,1.00
2019-02-16T07:31:23.569Z,0.90
2019-02-16T07:33:51.841Z,0.80
2019-02-16T07:36:22.086Z,0.60
2019-02-16T07:38:50.230Z,0.30
2019-02-16T07:41:18.825Z,0.20
2019-02-16T07:43:51.828Z,0.30
2019-02-16T07:46:38.120Z,0.50
2019-02-16T07:49:17.380Z,0.60
2019-02-16T07:51:47.324Z,0.70
2019-02-16T07:54:17.417Z,0.80
2019-02-16T07:56:50.444Z,0.90
2019-02-16T07:59:21.101Z,1.00
2019-02-16T08:01:54.163Z,1.10
2019-02-16T08:04:27.469Z,1.20
2019-02-16T08:07:14.046Z,1.20
2019-02-16T08:09:44.226Z,1.30
2019-02-16T08:12:30.545Z,1.30
2019-02-16T08:15:06.682Z,1.40
2019-02-16T08:17:39.475Z,1.40
2019-02-16T08:20:12.391Z,1.50
2019-02-16T08:22:42.579Z,1.50
2019-02-16T08:25:24.578Z,1.50
2019-02-16T08:27:54.784Z,1.50
2019-02-16T08:30:28.108Z,1.50
2019-02-16T08:33:03.935Z,1.50
2019-02-16T08:35:45.895Z,1.50
2019-02-16T08:38:21.843Z,1.70
2019-02-16T08:40:54.468Z,1.70
2019-02-16T08:43:24.794Z,1.80
2019-02-16T08:46:00.779Z,1.80
2019-02-16T08:48:33.744Z,1.80
2019-02-16T08:51:03.919Z,1.90
2019-02-16T08:53:49.583Z,1.90
2019-02-16T08:56:20.556Z,1.80
2019-02-16T08:59:09.128Z,1.90
2019-02-16T09:01:41.938Z,2.00
2019-02-16T09:04:20.948Z,2.10
2019-02-16T09:06:59.843Z,2.10
2019-02-16T09:09:38.914Z,2.20
2019-02-16T09:12:09.015Z,2.30
2019-02-16T09:14:45.015Z,2.40
2019-02-16T09:17:21.102Z,2.40
2019-02-16T09:20:12.065Z,2.40
2019-02-16T09:22:44.935Z,2.50
2019-02-16T09:25:17.894Z,2.50
2019-02-16T09:28:04.091Z,2.50
2019-02-16T09:30:52.148Z,2.50
2019-02-16T09:33:22.145Z,2.60
2019-02-16T09:35:55.094Z,2.70
2019-02-16T09:38:31.373Z,2.80
2019-02-16T09:41:18.083Z,2.90
2019-02-16T09:43:48.020Z,3.00
2019-02-16T09:46:21.105Z,3.00
2019-02-16T09:49:09.161Z,3.00
2019-02-16T09:51:41.802Z,3.00
2019-02-16T09:54:14.446Z,3.10
2019-02-16T09:56:49.992Z,3.20
2019-02-16T09:59:22.864Z,3.30
2019-02-16T10:02:01.940Z,3.40
2019-02-16T10:04:47.380Z,3.50
2019-02-16T10:07:30.536Z,3.70
2019-02-16T10:10:00.769Z,3.90
2019-02-16T10:12:33.940Z,4.00
2019-02-16T10:15:20.009Z,4.20
2019-02-16T10:18:08.157Z,4.40
2019-02-16T10:20:40.352Z,4.70
2019-02-16T10:23:16.050Z,5.00
2019-02-16T10:25:55.041Z,5.20
2019-02-16T10:28:28.105Z,5.60
2019-02-16T10:31:07.330Z,6.20
2019-02-16T10:33:37.281Z,6.70
2019-02-16T10:36:09.990Z,6.90
2019-02-16T10:38:46.061Z,7.10
2019-02-16T10:41:24.960Z,7.30
2019-02-16T10:43:55.152Z,7.70
2019-02-16T10:46:28.890Z,7.90
2019-02-16T10:49:01.769Z,8.00
2019-02-16T10:51:34.719Z,7.90
2019-02-16T10:54:07.451Z,8.10
2019-02-16T10:56:40.260Z,8.00
2019-02-16T10:59:25.761Z,8.20
2019-02-16T11:01:55.769Z,8.50
2019-02-16T11:04:38.575Z,8.90
2019-02-16T11:07:09.393Z,9.10
2019-02-16T11:09:45.361Z,9.40
2019-02-16T11:12:20.906Z,9.60
2019-02-16T11:14:53.558Z,9.80
2019-02-16T11:17:29.652Z,10.20
2019-02-16T11:20:06.276Z,10.80
2019-02-16T11:22:36.411Z,11.40
2019-02-16T11:25:22.198Z,12.10
2019-02-16T11:28:08.731Z,12.80
2019-02-16T11:30:47.721Z,13.70
2019-02-16T11:33:26.881Z,14.90
2019-02-16T11:35:59.663Z,15.60
2019-02-16T11:38:29.936Z,15.70
2019-02-16T11:41:00.192Z,16.30
2019-02-16T11:43:42.242Z,16.90
2019-02-16T11:46:24.550Z,17.50
2019-02-16T11:48:54.840Z,17.70
2019-02-16T11:51:27.837Z,18.30
2019-02-16T11:54:03.849Z,18.60
2019-02-16T11:56:33.805Z,18.80
2019-02-16T11:59:09.685Z,19.20
2019-02-16T12:01:40.841Z,19.50
2019-02-16T12:04:27.490Z,19.60
2019-02-16T12:06:57.542Z,19.30
2019-02-16T12:09:43.926Z,19.20
2019-02-16T12:12:20.233Z,19.20
2019-02-16T12:14:50.237Z,19.30
2019-02-16T12:17:32.223Z,19.30
2019-02-16T12:20:04.999Z,19.50
2019-02-16T12:22:35.110Z,18.90
2019-02-16T12:25:14.141Z,18.40
2019-02-16T12:28:02.392Z,18.20
2019-02-16T12:30:49.188Z,18.10
2019-02-16T12:33:19.377Z,18.00
2019-02-16T12:35:52.378Z,18.10
2019-02-16T12:38:25.742Z,18.30
2019-02-16T12:40:58.705Z,18.60
2019-02-16T12:43:37.898Z,18.60
2019-02-16T12:46:07.968Z,18.50
2019-02-16T12:48:42.088Z,18.20
2019-02-16T12:51:12.307Z,18.50
2019-02-16T12:53:42.359Z,18.70
2019-02-16T12:56:18.005Z,18.90
2019-02-16T12:58:47.925Z,19.10
2019-02-16T13:01:24.133Z,19.50
2019-02-16T13:03:54.098Z,19.70
2019-02-16T13:06:39.312Z,19.90
2019-02-16T13:09:15.822Z,19.30
2019-02-16T13:11:58.086Z,18.80
2019-02-16T13:14:28.028Z,18.30
2019-02-16T13:17:03.920Z,17.50
2019-02-16T13:19:34.089Z,16.70
2019-02-16T13:22:04.174Z,16.50
2019-02-16T13:24:34.145Z,17.00
2019-02-16T13:27:04.306Z,17.70
2019-02-16T13:29:34.489Z,18.20
2019-02-16T13:32:13.738Z,18.50
2019-02-16T13:34:52.958Z,19.10
2019-02-16T13:37:24.130Z,19.80
2019-02-16T13:39:57.146Z,19.90
2019-02-16T13:42:30.249Z,20.00
2019-02-16T13:45:03.488Z,19.60
2019-02-16T13:47:33.674Z,19.70
2019-02-16T13:50:09.842Z,19.40
2019-02-16T13:52:42.782Z,19.30
2019-02-16T13:55:36.140Z,19.10
2019-02-16T13:58:08.285Z,18.80
2019-02-16T14:00:41.323Z,18.40
2019-02-16T14:03:29.459Z,18.30
2019-02-16T14:06:17.681Z,18.10
2019-02-16T14:08:47.817Z,17.90
2019-02-16T14:11:21.074Z,17.60
2019-02-16T14:13:52.464Z,17.40
2019-02-16T14:16:25.208Z,17.20
2019-02-16T14:18:53.610Z,17.20
2019-02-16T14:21:21.916Z,17.30
2019-02-16T14:23:50.372Z,17.30
2019-02-16T14:26:18.881Z,17.30
2019-02-16T14:28:48.556Z,17.30
2019-02-16T14:31:18.750Z,17.50
2019-02-16T14:33:47.171Z,17.80
2019-02-16T14:36:15.692Z,17.90
2019-02-16T14:38:48.067Z,18.00
2019-02-16T14:41:16.482Z,17.90
2019-02-16T14:43:44.807Z,18.10
2019-02-16T14:46:13.471Z,18.00
2019-02-16T14:48:41.849Z,18.00
2019-02-16T14:51:10.306Z,17.90
2019-02-16T14:53:38.674Z,17.60
2019-02-16T14:56:07.048Z,17.10
2019-02-16T14:58:35.643Z,16.70
2019-02-16T15:01:04.210Z,16.20
2019-02-16T15:03:32.528Z,15.80
2019-02-16T15:06:00.892Z,15.40
2019-02-16T15:08:29.670Z,15.30
2019-02-16T15:10:58.124Z,14.90
2019-02-16T15:13:26.460Z,14.70
2019-02-16T15:15:55.308Z,14.50
2019-02-16T15:18:24.472Z,14.50
2019-02-16T15:20:52.909Z,14.50
2019-02-16T15:23:21.506Z,14.30
2019-02-16T15:25:49.804Z,14.20
2019-02-16T15:28:18.247Z,14.00
2019-02-16T15:30:46.692Z,13.80
2019-02-16T15:33:15.081Z,13.60
2019-02-16T15:35:43.429Z,13.40
2019-02-16T15:38:11.990Z,13.00
2019-02-16T15:40:40.320Z,12.80
2019-02-16T15:43:08.933Z,12.50
2019-02-16T15:45:37.258Z,12.20
2019-02-16T15:48:05.707Z,12.00
2019-02-16T15:50:34.047Z,11.70
2019-02-16T15:53:02.365Z,11.60
2019-02-16T15:55:33.557Z,11.40
2019-02-16T15:58:01.935Z,11.20
2019-02-16T16:00:30.559Z,11.10
2019-02-16T16:02:59.680Z,10.90
2019-02-16T16:05:28.404Z,10.70
2019-02-16T16:08:10.633Z,10.60
2019-02-16T16:10:53.033Z,10.50
2019-02-16T16:13:38.524Z,10.40
2019-02-16T16:16:14.351Z,10.30
2019-02-16T16:18:53.161Z,10.20
2019-02-16T16:21:23.178Z,10.10
